• Join FlightAware (Why Join?)
  • Login
  • US Flag 
11:31PM EDT


 

Airport Tracker/Info


-or-


 

Live Flight TrackerFlight Track Log ✈ RPA3242 ✈ 18-May-2013 ✈ KPHL - KALB

Flight Track Log - Related Links

Times and Time Zones

All times are in EDT time to prevent confusion due to time zone crossing. See the RPA3242 flight status page for this flight to view local times or setup timezone preferences in your user account.

Time Position Orientation Groundspeed Altitude Reporting Facility
EDT Latitude Longitude Course Direction KTS MPH feet Rate Location/Type
09:22PM 39.8667 -75.2333 37° Northeast 136 157 800  Level Philadelphia TRACON
09:23PM 39.8667 -75.1833 90° East 188 216 2,200 2,040 Climbing Philadelphia TRACON
09:24PM 39.8667 -75.1000 90° East 260 299 4,300 2,640 Climbing Philadelphia TRACON
09:25PM 39.8167 -74.9237 90° East  Level FlightAware Approximate
09:26PM 39.8067 -74.8167 105° East  Level FlightAware Approximate
09:26PM 39.8253 -74.8794 104° East 287 330 10,700  Level New York Center
09:27PM 39.7857 -74.7116 105° East  Level FlightAware Approximate
09:27PM 39.8061 -74.7700 103° East 312 359 12,400  Level New York Center
09:28PM 39.8422 -74.6412 37° Northeast  Level FlightAware Approximate
09:28PM 39.8428 -74.6669 65° Northeast 302 348 14,900  Level New York Center
09:29PM 39.9206 -74.5900 37° Northeast 293 337 17,200 1,860 Climbing New York Center
09:30PM 39.9978 -74.5156 36° Northeast 319 367 18,600 1,620 Climbing New York Center
09:31PM 40.0794 -74.4358 37° Northeast 361 415 20,400 1,680 Climbing New York Center
09:32PM 40.1592 -74.3558 37° Northeast 361 415 22,000 1,440 Climbing New York Center
09:33PM 40.2431 -74.2733 37° Northeast 361 415 23,400 960 Climbing New York Center
09:34PM 40.3306 -74.2042 31° Northeast 366 421 24,000 240 Climbing New York Center
09:35PM 40.4197 -74.1378 30° Northeast 366 421 24,000  Level New York Center
09:36PM 40.5114 -74.0714 29° Northeast 366 421 24,000  Level New York Center
09:37PM 40.5986 -74.0044 30° Northeast 366 421 24,000  Level New York Center
09:38PM 40.6878 -73.9403 29° Northeast 366 421 24,000  Level New York Center
09:40PM 40.8394 -73.8092 33° Northeast 378 435 24,000  Level Boston Center
09:41PM 40.9178 -73.7117 43° Northeast 383 441 24,000  Level Boston Center
09:42PM 40.9939 -73.6061 46° Northeast 383 441 24,000 -360 Level Boston Center
09:43PM 41.1053 -73.5228 29° Northeast 389 448 23,300 -1,560 Descending Boston Center
09:44PM 41.2069 -73.5436 351° North 338 389 20,900 -1,680 Descending Boston Center
09:45PM 41.3092 -73.5592 353° North 345 397 20,000 -840 Descending Boston Center
09:46PM 41.4111 -73.5750 353° North 356 410 19,300 -1,860 Descending Boston Center
09:47PM 41.5067 -73.5933 352° North 356 410 16,300 -2,700 Descending Boston Center
09:48PM 41.6025 -73.6089 353° North 349 402 14,000 -1,980 Descending Boston Center
09:49PM 41.6981 -73.6244 353° North 349 402 12,400 -1,500 Descending Boston Center
09:50PM 41.7917 -73.6403 353° North 349 402 11,000 -720 Descending Boston Center
09:51PM 41.8853 -73.6586 352° North 349 402 11,000  Level Boston Center
09:52PM 41.9561 -73.6683 354° North 339 390 11,000  Level Boston Center
09:52PM 41.9789 -73.6717 354° North 344 396 11,000  Level Boston Center
09:53PM 42.0558 -73.6844 353° North 340 391 11,000  Level Boston Center
09:54PM 42.1558 -73.7031 352° North 342 394 11,000 -240 Level Boston Center
09:55PM 42.2431 -73.7189 352° North 316 364 10,600 -1,080 Descending Boston Center
09:56PM 42.3286 -73.7292 355° North 267 307 8,800 -1,740 Descending Boston Center
09:57PM 42.4036 -73.7278 North 268 308 7,000 -2,040 Descending Boston Center
09:58PM 42.4786 -73.7322 357° North 267 307 4,800 -1,500 Descending Boston Center
09:59PM 42.5597 -73.7311 North 271 312 4,000 -780 Descending Boston Center
10:00PM 42.6244 -73.7325 359° North 273 314 3,300 -780 Descending Boston Center
10:01PM 42.7014 -73.7311 North 236 272 2,500 -660 Descending Boston Center
10:02PM 42.7619 -73.7239 North 216 249 2,000 -360 Descending Boston Center
10:03PM 42.8206 -73.7194 North 410 472 1,800 -240 Descending Boston Center